sensor_id;sensor_type;location;lat;lon;timestamp;temperature;humidity
10171;DHT22;5127;50.922;6.988;2022-07-18T00:01:03;21.90;42.30
10171;DHT22;5127;50.922;6.988;2022-07-18T00:03:32;21.90;42.50
10171;DHT22;5127;50.922;6.988;2022-07-18T00:05:59;21.80;42.70
10171;DHT22;5127;50.922;6.988;2022-07-18T00:08:27;21.70;42.60
10171;DHT22;5127;50.922;6.988;2022-07-18T00:10:54;21.70;42.70
10171;DHT22;5127;50.922;6.988;2022-07-18T00:13:21;21.70;43.00
10171;DHT22;5127;50.922;6.988;2022-07-18T00:15:49;21.60;42.90
10171;DHT22;5127;50.922;6.988;2022-07-18T00:18:16;21.60;43.10
10171;DHT22;5127;50.922;6.988;2022-07-18T00:20:45;21.60;43.20
10171;DHT22;5127;50.922;6.988;2022-07-18T00:23:12;21.60;43.70
10171;DHT22;5127;50.922;6.988;2022-07-18T00:25:39;21.60;43.50
10171;DHT22;5127;50.922;6.988;2022-07-18T00:28:06;21.50;43.70
10171;DHT22;5127;50.922;6.988;2022-07-18T00:30:34;21.40;43.60
10171;DHT22;5127;50.922;6.988;2022-07-18T00:33:01;21.40;43.90
10171;DHT22;5127;50.922;6.988;2022-07-18T00:35:28;21.40;44.40
10171;DHT22;5127;50.922;6.988;2022-07-18T00:37:57;21.30;43.80
10171;DHT22;5127;50.922;6.988;2022-07-18T00:40:25;21.30;44.20
10171;DHT22;5127;50.922;6.988;2022-07-18T00:42:52;21.30;43.90
10171;DHT22;5127;50.922;6.988;2022-07-18T00:45:19;21.20;44.10
10171;DHT22;5127;50.922;6.988;2022-07-18T00:47:46;21.20;44.00
10171;DHT22;5127;50.922;6.988;2022-07-18T00:50:17;21.20;44.10
10171;DHT22;5127;50.922;6.988;2022-07-18T00:52:44;21.20;44.10
10171;DHT22;5127;50.922;6.988;2022-07-18T00:55:14;21.10;44.00
10171;DHT22;5127;50.922;6.988;2022-07-18T00:57:42;21.10;44.40
10171;DHT22;5127;50.922;6.988;2022-07-18T01:00:14;21.00;44.30
10171;DHT22;5127;50.922;6.988;2022-07-18T01:02:59;21.00;44.40
10171;DHT22;5127;50.922;6.988;2022-07-18T01:05:27;21.00;44.30
10171;DHT22;5127;50.922;6.988;2022-07-18T01:07:54;21.00;44.30
10171;DHT22;5127;50.922;6.988;2022-07-18T01:10:23;21.00;44.30
10171;DHT22;5127;50.922;6.988;2022-07-18T01:12:50;20.90;44.50
10171;DHT22;5127;50.922;6.988;2022-07-18T01:15:18;20.90;44.40
10171;DHT22;5127;50.922;6.988;2022-07-18T01:17:45;20.90;44.50
10171;DHT22;5127;50.922;6.988;2022-07-18T01:20:13;20.90;44.60
10171;DHT22;5127;50.922;6.988;2022-07-18T01:22:41;20.80;44.80
10171;DHT22;5127;50.922;6.988;2022-07-18T01:25:10;20.80;44.90
10171;DHT22;5127;50.922;6.988;2022-07-18T01:27:37;20.70;44.70
10171;DHT22;5127;50.922;6.988;2022-07-18T01:30:06;20.70;44.80
10171;DHT22;5127;50.922;6.988;2022-07-18T01:32:33;20.70;44.90
10171;DHT22;5127;50.922;6.988;2022-07-18T01:35:00;20.70;45.10
10171;DHT22;5127;50.922;6.988;2022-07-18T01:37:28;20.60;45.00
10171;DHT22;5127;50.922;6.988;2022-07-18T01:39:56;20.70;45.20
10171;DHT22;5127;50.922;6.988;2022-07-18T01:42:24;20.60;45.10
10171;DHT22;5127;50.922;6.988;2022-07-18T01:44:54;20.60;45.00
10171;DHT22;5127;50.922;6.988;2022-07-18T01:47:21;20.50;45.30
10171;DHT22;5127;50.922;6.988;2022-07-18T01:49:48;20.50;45.20
10171;DHT22;5127;50.922;6.988;2022-07-18T01:52:15;20.50;45.30
10171;DHT22;5127;50.922;6.988;2022-07-18T01:54:43;20.50;45.40
10171;DHT22;5127;50.922;6.988;2022-07-18T01:57:11;20.40;45.40
10171;DHT22;5127;50.922;6.988;2022-07-18T01:59:38;20.40;45.40
10171;DHT22;5127;50.922;6.988;2022-07-18T02:02:06;20.30;45.40
10171;DHT22;5127;50.922;6.988;2022-07-18T02:04:37;20.30;45.50
10171;DHT22;5127;50.922;6.988;2022-07-18T02:07:22;20.30;45.60
10171;DHT22;5127;50.922;6.988;2022-07-18T02:09:49;20.30;45.50
10171;DHT22;5127;50.922;6.988;2022-07-18T02:12:18;20.20;45.50
10171;DHT22;5127;50.922;6.988;2022-07-18T02:14:45;20.20;45.60
10171;DHT22;5127;50.922;6.988;2022-07-18T02:17:13;20.20;45.50
10171;DHT22;5127;50.922;6.988;2022-07-18T02:19:40;20.20;45.50
10171;DHT22;5127;50.922;6.988;2022-07-18T02:22:08;20.10;45.50
10171;DHT22;5127;50.922;6.988;2022-07-18T02:24:35;20.10;45.50
10171;DHT22;5127;50.922;6.988;2022-07-18T02:27:02;20.10;45.50
10171;DHT22;5127;50.922;6.988;2022-07-18T02:29:31;20.10;45.80
10171;DHT22;5127;50.922;6.988;2022-07-18T02:31:59;20.00;45.80
10171;DHT22;5127;50.922;6.988;2022-07-18T02:34:26;20.00;45.60
10171;DHT22;5127;50.922;6.988;2022-07-18T02:36:54;20.00;45.80
10171;DHT22;5127;50.922;6.988;2022-07-18T02:39:21;20.00;45.70
10171;DHT22;5127;50.922;6.988;2022-07-18T02:41:48;19.90;45.60
10171;DHT22;5127;50.922;6.988;2022-07-18T02:44:15;19.90;45.80
10171;DHT22;5127;50.922;6.988;2022-07-18T02:46:44;19.90;45.70
10171;DHT22;5127;50.922;6.988;2022-07-18T02:49:12;19.90;45.90
10171;DHT22;5127;50.922;6.988;2022-07-18T02:51:53;19.80;45.90
10171;DHT22;5127;50.922;6.988;2022-07-18T02:54:21;19.80;46.10
10171;DHT22;5127;50.922;6.988;2022-07-18T02:56:49;19.80;45.90
10171;DHT22;5127;50.922;6.988;2022-07-18T02:59:16;19.80;45.90
10171;DHT22;5127;50.922;6.988;2022-07-18T03:01:45;19.90;46.20
10171;DHT22;5127;50.922;6.988;2022-07-18T03:04:12;19.70;46.20
10171;DHT22;5127;50.922;6.988;2022-07-18T03:06:39;19.70;46.20
10171;DHT22;5127;50.922;6.988;2022-07-18T03:09:07;19.70;46.40
10171;DHT22;5127;50.922;6.988;2022-07-18T03:11:34;19.70;46.40
10171;DHT22;5127;50.922;6.988;2022-07-18T03:14:01;19.70;46.60
10171;DHT22;5127;50.922;6.988;2022-07-18T03:16:29;19.70;46.70
10171;DHT22;5127;50.922;6.988;2022-07-18T03:18:57;19.60;46.70
10171;DHT22;5127;50.922;6.988;2022-07-18T03:21:24;19.60;46.80
10171;DHT22;5127;50.922;6.988;2022-07-18T03:23:52;19.60;46.80
10171;DHT22;5127;50.922;6.988;2022-07-18T03:26:19;19.50;46.70
10171;DHT22;5127;50.922;6.988;2022-07-18T03:28:46;19.50;46.70
10171;DHT22;5127;50.922;6.988;2022-07-18T03:31:14;19.60;46.90
10171;DHT22;5127;50.922;6.988;2022-07-18T03:33:42;19.50;47.10
10171;DHT22;5127;50.922;6.988;2022-07-18T03:36:11;19.50;47.10
10171;DHT22;5127;50.922;6.988;2022-07-18T03:38:38;19.50;47.40
10171;DHT22;5127;50.922;6.988;2022-07-18T03:41:09;19.40;47.20
10171;DHT22;5127;50.922;6.988;2022-07-18T03:43:37;19.40;47.50
10171;DHT22;5127;50.922;6.988;2022-07-18T03:46:04;19.40;47.40
10171;DHT22;5127;50.922;6.988;2022-07-18T03:48:32;19.40;47.50
10171;DHT22;5127;50.922;6.988;2022-07-18T03:51:01;19.40;47.60
10171;DHT22;5127;50.922;6.988;2022-07-18T03:53:30;19.40;47.60
10171;DHT22;5127;50.922;6.988;2022-07-18T03:55:58;19.30;47.60
10171;DHT22;5127;50.922;6.988;2022-07-18T03:58:26;19.40;47.70
10171;DHT22;5127;50.922;6.988;2022-07-18T04:00:53;19.40;47.80
10171;DHT22;5127;50.922;6.988;2022-07-18T04:03:20;19.30;47.80
10171;DHT22;5127;50.922;6.988;2022-07-18T04:05:48;19.30;48.00
10171;DHT22;5127;50.922;6.988;2022-07-18T04:08:16;19.30;48.10
10171;DHT22;5127;50.922;6.988;2022-07-18T04:10:44;19.30;48.20
10171;DHT22;5127;50.922;6.988;2022-07-18T04:13:12;19.20;48.40
10171;DHT22;5127;50.922;6.988;2022-07-18T04:15:40;19.20;48.30
10171;DHT22;5127;50.922;6.988;2022-07-18T04:18:08;19.20;48.50
10171;DHT22;5127;50.922;6.988;2022-07-18T04:20:36;19.20;48.30
10171;DHT22;5127;50.922;6.988;2022-07-18T04:23:06;19.20;48.40
10171;DHT22;5127;50.922;6.988;2022-07-18T04:25:35;19.20;48.70
10171;DHT22;5127;50.922;6.988;2022-07-18T04:28:04;19.30;48.90
10171;DHT22;5127;50.922;6.988;2022-07-18T04:30:32;19.30;49.00
10171;DHT22;5127;50.922;6.988;2022-07-18T04:33:01;19.30;48.80
10171;DHT22;5127;50.922;6.988;2022-07-18T04:35:30;19.30;49.00
10171;DHT22;5127;50.922;6.988;2022-07-18T04:37:57;19.30;48.80
10171;DHT22;5127;50.922;6.988;2022-07-18T04:40:24;19.30;48.90
10171;DHT22;5127;50.922;6.988;2022-07-18T04:42:52;19.30;48.80
10171;DHT22;5127;50.922;6.988;2022-07-18T04:45:20;19.30;48.90
10171;DHT22;5127;50.922;6.988;2022-07-18T04:47:50;19.30;49.10
10171;DHT22;5127;50.922;6.988;2022-07-18T04:50:17;19.30;49.30
10171;DHT22;5127;50.922;6.988;2022-07-18T04:52:46;19.30;49.30
10171;DHT22;5127;50.922;6.988;2022-07-18T04:55:16;19.40;49.30
10171;DHT22;5127;50.922;6.988;2022-07-18T04:57:43;19.40;49.10
10171;DHT22;5127;50.922;6.988;2022-07-18T05:00:13;19.40;48.90
10171;DHT22;5127;50.922;6.988;2022-07-18T05:02:43;19.40;49.00
10171;DHT22;5127;50.922;6.988;2022-07-18T05:05:12;19.50;49.10
10171;DHT22;5127;50.922;6.988;2022-07-18T05:07:41;19.50;49.00
10171;DHT22;5127;50.922;6.988;2022-07-18T05:10:10;19.50;48.90
10171;DHT22;5127;50.922;6.988;2022-07-18T05:12:39;19.50;48.80
10171;DHT22;5127;50.922;6.988;2022-07-18T05:15:08;19.60;49.00
10171;DHT22;5127;50.922;6.988;2022-07-18T05:17:36;19.70;49.10
10171;DHT22;5127;50.922;6.988;2022-07-18T05:20:06;19.70;49.10
10171;DHT22;5127;50.922;6.988;2022-07-18T05:22:34;19.70;49.10
10171;DHT22;5127;50.922;6.988;2022-07-18T05:25:04;19.80;49.10
10171;DHT22;5127;50.922;6.988;2022-07-18T05:27:32;19.80;48.70
10171;DHT22;5127;50.922;6.988;2022-07-18T05:29:59;19.90;48.40
10171;DHT22;5127;50.922;6.988;2022-07-18T05:32:26;19.90;48.30
10171;DHT22;5127;50.922;6.988;2022-07-18T05:34:54;20.00;48.30
10171;DHT22;5127;50.922;6.988;2022-07-18T05:37:22;20.00;48.20
10171;DHT22;5127;50.922;6.988;2022-07-18T05:39:50;20.10;48.10
10171;DHT22;5127;50.922;6.988;2022-07-18T05:42:18;20.20;48.40
10171;DHT22;5127;50.922;6.988;2022-07-18T05:44:46;20.30;48.00
10171;DHT22;5127;50.922;6.988;2022-07-18T05:47:13;20.30;47.70
10171;DHT22;5127;50.922;6.988;2022-07-18T05:49:40;20.50;47.70
10171;DHT22;5127;50.922;6.988;2022-07-18T05:52:08;20.50;47.40
10171;DHT22;5127;50.922;6.988;2022-07-18T05:54:36;20.60;47.30
10171;DHT22;5127;50.922;6.988;2022-07-18T05:57:04;20.70;47.20
10171;DHT22;5127;50.922;6.988;2022-07-18T05:59:31;20.80;47.20
10171;DHT22;5127;50.922;6.988;2022-07-18T06:01:59;20.80;47.10
10171;DHT22;5127;50.922;6.988;2022-07-18T06:04:26;20.90;47.10
10171;DHT22;5127;50.922;6.988;2022-07-18T06:06:53;21.00;47.00
10171;DHT22;5127;50.922;6.988;2022-07-18T06:09:21;21.10;46.90
10171;DHT22;5127;50.922;6.988;2022-07-18T06:11:50;21.20;46.80
10171;DHT22;5127;50.922;6.988;2022-07-18T06:14:17;21.30;46.60
10171;DHT22;5127;50.922;6.988;2022-07-18T06:16:44;21.40;46.40
10171;DHT22;5127;50.922;6.988;2022-07-18T06:19:12;21.50;46.30
10171;DHT22;5127;50.922;6.988;2022-07-18T06:21:39;21.60;46.20
10171;DHT22;5127;50.922;6.988;2022-07-18T06:24:06;21.80;46.20
10171;DHT22;5127;50.922;6.988;2022-07-18T06:26:33;21.80;46.00
10171;DHT22;5127;50.922;6.988;2022-07-18T06:29:02;21.90;46.00
10171;DHT22;5127;50.922;6.988;2022-07-18T06:31:29;22.00;45.60
10171;DHT22;5127;50.922;6.988;2022-07-18T06:33:57;22.10;45.60
10171;DHT22;5127;50.922;6.988;2022-07-18T06:36:24;22.20;45.70
10171;DHT22;5127;50.922;6.988;2022-07-18T06:38:51;22.30;45.50
10171;DHT22;5127;50.922;6.988;2022-07-18T06:41:19;22.40;45.40
10171;DHT22;5127;50.922;6.988;2022-07-18T06:43:46;22.50;45.10
10171;DHT22;5127;50.922;6.988;2022-07-18T06:46:15;22.70;45.00
10171;DHT22;5127;50.922;6.988;2022-07-18T06:48:42;22.70;44.70
10171;DHT22;5127;50.922;6.988;2022-07-18T06:51:09;22.90;44.90
10171;DHT22;5127;50.922;6.988;2022-07-18T06:53:37;23.10;45.60
10171;DHT22;5127;50.922;6.988;2022-07-18T06:56:04;23.40;46.10
10171;DHT22;5127;50.922;6.988;2022-07-18T06:58:32;23.80;46.30
10171;DHT22;5127;50.922;6.988;2022-07-18T07:00:59;24.20;46.70
10171;DHT22;5127;50.922;6.988;2022-07-18T07:03:28;24.80;47.10
10171;DHT22;5127;50.922;6.988;2022-07-18T07:05:55;25.40;46.60
10171;DHT22;5127;50.922;6.988;2022-07-18T07:08:22;26.10;47.00
10171;DHT22;5127;50.922;6.988;2022-07-18T07:10:49;26.80;46.70
10171;DHT22;5127;50.922;6.988;2022-07-18T07:13:17;27.40;46.00
10171;DHT22;5127;50.922;6.988;2022-07-18T07:15:44;28.10;45.40
10171;DHT22;5127;50.922;6.988;2022-07-18T07:18:11;28.70;43.70
10171;DHT22;5127;50.922;6.988;2022-07-18T07:20:40;29.20;43.30
10171;DHT22;5127;50.922;6.988;2022-07-18T07:23:07;29.70;42.50
10171;DHT22;5127;50.922;6.988;2022-07-18T07:25:35;30.20;41.60
10171;DHT22;5127;50.922;6.988;2022-07-18T07:28:03;30.70;41.20
10171;DHT22;5127;50.922;6.988;2022-07-18T07:30:31;31.20;40.50
10171;DHT22;5127;50.922;6.988;2022-07-18T07:32:59;31.70;40.20
10171;DHT22;5127;50.922;6.988;2022-07-18T07:35:26;32.10;40.10
10171;DHT22;5127;50.922;6.988;2022-07-18T07:37:57;32.60;39.20
10171;DHT22;5127;50.922;6.988;2022-07-18T07:40:25;33.00;37.50
10171;DHT22;5127;50.922;6.988;2022-07-18T07:43:05;33.40;38.40
10171;DHT22;5127;50.922;6.988;2022-07-18T07:45:32;33.90;36.80
10171;DHT22;5127;50.922;6.988;2022-07-18T07:48:00;34.20;36.30
10171;DHT22;5127;50.922;6.988;2022-07-18T07:50:27;34.60;36.50
10171;DHT22;5127;50.922;6.988;2022-07-18T07:52:57;34.90;35.30
10171;DHT22;5127;50.922;6.988;2022-07-18T07:55:24;35.20;34.40
10171;DHT22;5127;50.922;6.988;2022-07-18T07:57:52;35.50;34.20
10171;DHT22;5127;50.922;6.988;2022-07-18T08:00:19;35.70;33.70
10171;DHT22;5127;50.922;6.988;2022-07-18T08:02:51;36.00;33.50
10171;DHT22;5127;50.922;6.988;2022-07-18T08:05:19;36.20;32.10
10171;DHT22;5127;50.922;6.988;2022-07-18T08:07:46;36.30;32.40
10171;DHT22;5127;50.922;6.988;2022-07-18T08:10:15;36.40;32.50
10171;DHT22;5127;50.922;6.988;2022-07-18T08:12:43;36.50;31.60
10171;DHT22;5127;50.922;6.988;2022-07-18T08:15:10;36.60;31.50
10171;DHT22;5127;50.922;6.988;2022-07-18T08:17:37;36.70;31.80
10171;DHT22;5127;50.922;6.988;2022-07-18T08:20:06;36.70;31.80
10171;DHT22;5127;50.922;6.988;2022-07-18T08:22:33;36.80;31.30
10171;DHT22;5127;50.922;6.988;2022-07-18T08:25:01;36.90;31.30
10171;DHT22;5127;50.922;6.988;2022-07-18T08:27:29;37.00;30.80
10171;DHT22;5127;50.922;6.988;2022-07-18T08:29:57;37.20;30.30
10171;DHT22;5127;50.922;6.988;2022-07-18T08:32:24;37.20;30.30
10171;DHT22;5127;50.922;6.988;2022-07-18T08:34:51;37.30;30.10
10171;DHT22;5127;50.922;6.988;2022-07-18T08:37:19;37.40;30.60
10171;DHT22;5127;50.922;6.988;2022-07-18T08:39:47;37.50;30.60
10171;DHT22;5127;50.922;6.988;2022-07-18T08:42:16;37.60;29.80
10171;DHT22;5127;50.922;6.988;2022-07-18T08:44:47;37.70;29.90
10171;DHT22;5127;50.922;6.988;2022-07-18T08:47:17;37.90;29.70
10171;DHT22;5127;50.922;6.988;2022-07-18T08:49:46;37.90;29.40
10171;DHT22;5127;50.922;6.988;2022-07-18T08:52:14;38.00;29.20
10171;DHT22;5127;50.922;6.988;2022-07-18T08:54:42;38.10;29.50
10171;DHT22;5127;50.922;6.988;2022-07-18T08:57:09;38.20;29.10
10171;DHT22;5127;50.922;6.988;2022-07-18T08:59:37;38.30;29.10
10171;DHT22;5127;50.922;6.988;2022-07-18T09:02:07;38.40;28.60
10171;DHT22;5127;50.922;6.988;2022-07-18T09:04:35;38.50;28.30
10171;DHT22;5127;50.922;6.988;2022-07-18T09:07:04;38.60;28.70
10171;DHT22;5127;50.922;6.988;2022-07-18T09:09:32;38.60;28.30
10171;DHT22;5127;50.922;6.988;2022-07-18T09:12:01;38.70;28.20
10171;DHT22;5127;50.922;6.988;2022-07-18T09:14:33;38.70;28.40
10171;DHT22;5127;50.922;6.988;2022-07-18T09:17:03;38.80;28.20
10171;DHT22;5127;50.922;6.988;2022-07-18T09:19:32;38.80;28.10
10171;DHT22;5127;50.922;6.988;2022-07-18T09:22:15;38.80;27.70
10171;DHT22;5127;50.922;6.988;2022-07-18T09:24:54;38.90;27.90
10171;DHT22;5127;50.922;6.988;2022-07-18T09:27:24;38.90;27.40
10171;DHT22;5127;50.922;6.988;2022-07-18T09:30:20;38.90;27.90
10171;DHT22;5127;50.922;6.988;2022-07-18T09:32:49;39.00;27.90
10171;DHT22;5127;50.922;6.988;2022-07-18T09:35:21;38.90;27.40
10171;DHT22;5127;50.922;6.988;2022-07-18T09:37:54;39.00;27.60
10171;DHT22;5127;50.922;6.988;2022-07-18T09:40:24;39.00;26.80
10171;DHT22;5127;50.922;6.988;2022-07-18T09:42:53;39.10;26.90
10171;DHT22;5127;50.922;6.988;2022-07-18T09:45:22;39.10;26.80
10171;DHT22;5127;50.922;6.988;2022-07-18T09:47:52;39.10;26.90
10171;DHT22;5127;50.922;6.988;2022-07-18T09:50:26;39.10;27.50
10171;DHT22;5127;50.922;6.988;2022-07-18T09:53:11;39.20;26.70
10171;DHT22;5127;50.922;6.988;2022-07-18T09:55:43;39.20;26.60
10171;DHT22;5127;50.922;6.988;2022-07-18T09:58:11;39.20;26.00
10171;DHT22;5127;50.922;6.988;2022-07-18T10:00:39;39.20;25.80
10171;DHT22;5127;50.922;6.988;2022-07-18T10:03:08;39.10;25.70
10171;DHT22;5127;50.922;6.988;2022-07-18T10:05:38;39.00;25.40
10171;DHT22;5127;50.922;6.988;2022-07-18T10:08:07;38.80;25.10
10171;DHT22;5127;50.922;6.988;2022-07-18T10:10:36;38.60;25.30
10171;DHT22;5127;50.922;6.988;2022-07-18T10:13:04;38.40;25.00
10171;DHT22;5127;50.922;6.988;2022-07-18T10:15:35;38.20;25.40
10171;DHT22;5127;50.922;6.988;2022-07-18T10:18:04;38.00;24.70
10171;DHT22;5127;50.922;6.988;2022-07-18T10:20:34;37.80;24.80
10171;DHT22;5127;50.922;6.988;2022-07-18T10:23:15;37.60;24.50
10171;DHT22;5127;50.922;6.988;2022-07-18T10:25:43;37.40;24.50
10171;DHT22;5127;50.922;6.988;2022-07-18T10:28:12;37.20;24.60
10171;DHT22;5127;50.922;6.988;2022-07-18T10:30:45;37.00;24.60
10171;DHT22;5127;50.922;6.988;2022-07-18T10:33:38;36.80;24.30
10171;DHT22;5127;50.922;6.988;2022-07-18T10:36:08;36.60;25.10
10171;DHT22;5127;50.922;6.988;2022-07-18T10:38:38;36.40;25.00
10171;DHT22;5127;50.922;6.988;2022-07-18T10:41:12;36.20;24.50
10171;DHT22;5127;50.922;6.988;2022-07-18T10:43:44;36.00;24.60
10171;DHT22;5127;50.922;6.988;2022-07-18T10:46:12;35.80;24.70
10171;DHT22;5127;50.922;6.988;2022-07-18T10:48:54;35.70;24.80
10171;DHT22;5127;50.922;6.988;2022-07-18T10:51:30;35.60;24.80
10171;DHT22;5127;50.922;6.988;2022-07-18T10:54:09;35.50;24.50
10171;DHT22;5127;50.922;6.988;2022-07-18T10:57:06;35.40;24.70
10171;DHT22;5127;50.922;6.988;2022-07-18T10:59:35;35.30;24.80
10171;DHT22;5127;50.922;6.988;2022-07-18T11:02:05;35.10;25.00
10171;DHT22;5127;50.922;6.988;2022-07-18T11:04:38;35.00;24.70
10171;DHT22;5127;50.922;6.988;2022-07-18T11:07:12;34.90;24.70
10171;DHT22;5127;50.922;6.988;2022-07-18T11:09:43;34.80;25.10
10171;DHT22;5127;50.922;6.988;2022-07-18T11:12:26;34.80;25.10
10171;DHT22;5127;50.922;6.988;2022-07-18T11:15:01;34.70;24.80
10171;DHT22;5127;50.922;6.988;2022-07-18T11:17:54;34.70;25.10
10171;DHT22;5127;50.922;6.988;2022-07-18T11:20:39;34.60;25.40
10171;DHT22;5127;50.922;6.988;2022-07-18T11:23:20;34.50;25.30
10171;DHT22;5127;50.922;6.988;2022-07-18T11:25:50;34.40;25.30
10171;DHT22;5127;50.922;6.988;2022-07-18T11:28:18;34.40;25.20
10171;DHT22;5127;50.922;6.988;2022-07-18T11:30:46;34.30;25.30
10171;DHT22;5127;50.922;6.988;2022-07-18T11:33:24;34.30;25.40
10171;DHT22;5127;50.922;6.988;2022-07-18T11:35:52;34.20;25.30
10171;DHT22;5127;50.922;6.988;2022-07-18T11:38:28;34.20;25.50
10171;DHT22;5127;50.922;6.988;2022-07-18T11:40:57;34.20;25.40
10171;DHT22;5127;50.922;6.988;2022-07-18T11:43:25;34.10;25.50
10171;DHT22;5127;50.922;6.988;2022-07-18T11:46:01;34.10;25.70
10171;DHT22;5127;50.922;6.988;2022-07-18T11:48:29;34.10;25.90
10171;DHT22;5127;50.922;6.988;2022-07-18T11:50:56;34.10;25.90
10171;DHT22;5127;50.922;6.988;2022-07-18T11:53:24;34.20;25.90
10171;DHT22;5127;50.922;6.988;2022-07-18T11:55:52;34.20;25.80
10171;DHT22;5127;50.922;6.988;2022-07-18T11:58:21;34.20;25.80
10171;DHT22;5127;50.922;6.988;2022-07-18T12:00:48;34.20;25.70
10171;DHT22;5127;50.922;6.988;2022-07-18T12:03:18;34.20;25.80
10171;DHT22;5127;50.922;6.988;2022-07-18T12:05:47;34.20;25.70
10171;DHT22;5127;50.922;6.988;2022-07-18T12:08:30;34.20;25.80
10171;DHT22;5127;50.922;6.988;2022-07-18T12:11:05;34.20;26.00
10171;DHT22;5127;50.922;6.988;2022-07-18T12:13:45;34.20;25.90
10171;DHT22;5127;50.922;6.988;2022-07-18T12:16:33;34.20;25.80
10171;DHT22;5127;50.922;6.988;2022-07-18T12:19:03;34.20;25.90
10171;DHT22;5127;50.922;6.988;2022-07-18T12:21:45;34.10;26.00
10171;DHT22;5127;50.922;6.988;2022-07-18T12:27:17;34.20;25.70
10171;DHT22;5127;50.922;6.988;2022-07-18T12:32:47;34.30;25.70
10171;DHT22;5127;50.922;6.988;2022-07-18T12:35:18;34.30;25.60
10171;DHT22;5127;50.922;6.988;2022-07-18T12:37:57;34.30;25.70
10171;DHT22;5127;50.922;6.988;2022-07-18T12:40:25;34.30;25.80
10171;DHT22;5127;50.922;6.988;2022-07-18T12:43:07;34.30;26.00
10171;DHT22;5127;50.922;6.988;2022-07-18T12:45:36;34.30;26.10
10171;DHT22;5127;50.922;6.988;2022-07-18T12:48:05;34.40;26.00
10171;DHT22;5127;50.922;6.988;2022-07-18T12:50:33;34.40;26.10
10171;DHT22;5127;50.922;6.988;2022-07-18T12:53:01;34.40;26.20
10171;DHT22;5127;50.922;6.988;2022-07-18T12:55:29;34.50;25.90
10171;DHT22;5127;50.922;6.988;2022-07-18T12:57:56;34.50;26.00
10171;DHT22;5127;50.922;6.988;2022-07-18T13:00:23;34.60;26.00
10171;DHT22;5127;50.922;6.988;2022-07-18T13:02:52;34.70;26.00
10171;DHT22;5127;50.922;6.988;2022-07-18T13:05:21;34.70;25.90
10171;DHT22;5127;50.922;6.988;2022-07-18T13:07:49;34.80;25.70
10171;DHT22;5127;50.922;6.988;2022-07-18T13:10:16;34.80;25.80
10171;DHT22;5127;50.922;6.988;2022-07-18T13:12:44;34.80;25.90
10171;DHT22;5127;50.922;6.988;2022-07-18T13:15:11;34.80;25.70
10171;DHT22;5127;50.922;6.988;2022-07-18T13:17:38;34.90;25.90
10171;DHT22;5127;50.922;6.988;2022-07-18T13:20:08;34.90;25.80
10171;DHT22;5127;50.922;6.988;2022-07-18T13:22:35;34.80;25.70
10171;DHT22;5127;50.922;6.988;2022-07-18T13:25:05;34.90;25.90
10171;DHT22;5127;50.922;6.988;2022-07-18T13:27:33;34.90;25.90
10171;DHT22;5127;50.922;6.988;2022-07-18T13:30:00;35.00;25.80
10171;DHT22;5127;50.922;6.988;2022-07-18T13:32:28;34.90;25.60
10171;DHT22;5127;50.922;6.988;2022-07-18T13:34:55;35.00;25.80
10171;DHT22;5127;50.922;6.988;2022-07-18T13:37:24;34.90;25.80
10171;DHT22;5127;50.922;6.988;2022-07-18T13:39:51;34.90;25.80
10171;DHT22;5127;50.922;6.988;2022-07-18T13:42:18;34.90;25.70
10171;DHT22;5127;50.922;6.988;2022-07-18T13:44:46;34.90;25.70
10171;DHT22;5127;50.922;6.988;2022-07-18T13:47:14;34.90;25.70
10171;DHT22;5127;50.922;6.988;2022-07-18T13:49:41;34.90;25.90
10171;DHT22;5127;50.922;6.988;2022-07-18T13:52:09;34.90;25.80
10171;DHT22;5127;50.922;6.988;2022-07-18T13:54:38;34.90;26.30
10171;DHT22;5127;50.922;6.988;2022-07-18T13:57:05;34.90;25.60
10171;DHT22;5127;50.922;6.988;2022-07-18T13:59:33;34.90;25.90
10171;DHT22;5127;50.922;6.988;2022-07-18T14:02:00;34.90;25.90
10171;DHT22;5127;50.922;6.988;2022-07-18T14:04:27;34.90;26.00
10171;DHT22;5127;50.922;6.988;2022-07-18T14:06:54;34.90;25.90
10171;DHT22;5127;50.922;6.988;2022-07-18T14:09:22;34.90;25.90
10171;DHT22;5127;50.922;6.988;2022-07-18T14:11:50;35.00;25.90
10171;DHT22;5127;50.922;6.988;2022-07-18T14:14:18;35.00;25.80
10171;DHT22;5127;50.922;6.988;2022-07-18T14:16:45;34.90;25.80
10171;DHT22;5127;50.922;6.988;2022-07-18T14:19:13;34.90;25.80
10171;DHT22;5127;50.922;6.988;2022-07-18T14:21:40;34.90;25.90
10171;DHT22;5127;50.922;6.988;2022-07-18T14:24:07;34.90;25.80
10171;DHT22;5127;50.922;6.988;2022-07-18T14:26:34;34.90;25.80
10171;DHT22;5127;50.922;6.988;2022-07-18T14:29:03;34.90;25.80
10171;DHT22;5127;50.922;6.988;2022-07-18T14:31:30;34.90;25.80
10171;DHT22;5127;50.922;6.988;2022-07-18T14:33:58;34.90;25.70
10171;DHT22;5127;50.922;6.988;2022-07-18T14:36:25;35.00;25.80
10171;DHT22;5127;50.922;6.988;2022-07-18T14:38:52;35.00;25.70
10171;DHT22;5127;50.922;6.988;2022-07-18T14:41:19;34.90;25.70
10171;DHT22;5127;50.922;6.988;2022-07-18T14:43:47;34.90;25.70
10171;DHT22;5127;50.922;6.988;2022-07-18T14:46:15;34.90;25.70
10171;DHT22;5127;50.922;6.988;2022-07-18T14:48:43;35.00;25.80
10171;DHT22;5127;50.922;6.988;2022-07-18T14:51:10;34.90;25.80
10171;DHT22;5127;50.922;6.988;2022-07-18T14:53:38;34.90;25.80
10171;DHT22;5127;50.922;6.988;2022-07-18T14:56:05;34.90;25.90
10171;DHT22;5127;50.922;6.988;2022-07-18T14:58:32;34.90;25.90
10171;DHT22;5127;50.922;6.988;2022-07-18T15:01:00;34.90;26.00
10171;DHT22;5127;50.922;6.988;2022-07-18T15:03:28;34.90;26.00
10171;DHT22;5127;50.922;6.988;2022-07-18T15:05:55;34.90;26.00
10171;DHT22;5127;50.922;6.988;2022-07-18T15:08:23;34.90;26.10
10171;DHT22;5127;50.922;6.988;2022-07-18T15:10:50;34.90;26.00
10171;DHT22;5127;50.922;6.988;2022-07-18T15:13:17;35.00;26.40
10171;DHT22;5127;50.922;6.988;2022-07-18T15:15:45;35.00;25.80
10171;DHT22;5127;50.922;6.988;2022-07-18T15:18:13;34.90;25.80
10171;DHT22;5127;50.922;6.988;2022-07-18T15:20:42;35.00;25.70
10171;DHT22;5127;50.922;6.988;2022-07-18T15:23:09;35.00;25.70
10171;DHT22;5127;50.922;6.988;2022-07-18T15:25:36;35.00;25.80
10171;DHT22;5127;50.922;6.988;2022-07-18T15:28:04;35.00;25.90
10171;DHT22;5127;50.922;6.988;2022-07-18T15:30:31;35.00;25.80
10171;DHT22;5127;50.922;6.988;2022-07-18T15:32:58;35.00;25.80
10171;DHT22;5127;50.922;6.988;2022-07-18T15:35:25;34.90;25.80
10171;DHT22;5127;50.922;6.988;2022-07-18T15:37:54;35.10;25.70
10171;DHT22;5127;50.922;6.988;2022-07-18T15:40:21;35.00;25.60
10171;DHT22;5127;50.922;6.988;2022-07-18T15:42:49;35.10;25.80
10171;DHT22;5127;50.922;6.988;2022-07-18T15:45:16;35.10;25.80
10171;DHT22;5127;50.922;6.988;2022-07-18T15:47:44;35.10;25.80
10171;DHT22;5127;50.922;6.988;2022-07-18T15:50:11;35.10;25.90
10171;DHT22;5127;50.922;6.988;2022-07-18T15:52:40;35.00;25.90
10171;DHT22;5127;50.922;6.988;2022-07-18T15:55:10;35.00;25.90
10171;DHT22;5127;50.922;6.988;2022-07-18T15:57:37;35.00;25.80
10171;DHT22;5127;50.922;6.988;2022-07-18T16:00:06;35.00;25.80
10171;DHT22;5127;50.922;6.988;2022-07-18T16:02:38;35.00;25.80